RJSD(METAR)
05/21 18:00
METAR RJSD 210900Z AUTO 24003KT 160V310 9999 NCD 17/11 Q1004 RMK
A2966=
戻る
トップページへ戻る
IMOC Co,.Ltd.